Time;durP1;ratioP1;P1;durP2;ratioP2;P2;SDS_P1;SDS_P2;PMS_P1;PMS_P2;Temp;Humidity;BMP_temperature;BMP_pressure;BME280_temperature;BME280_humidity;BME280_pressure;Samples;Min_cycle;Max_cycle;Signal;HPM_P1;HPM_P2
2021/06/10 10:01:42;;;;;;;291.60;278.15;;;22.10;99.90;;;;;;5148079;27;20872;-71
2021/06/10 10:04:07;;;;;;;332.70;317.23;;;22.10;99.90;;;;;;5131818;28;20177;-72
2021/06/10 10:06:35;;;;;;;365.67;348.35;;;22.10;99.90;;;;;;5131641;27;20164;-70
2021/06/10 10:09:05;;;;;;;346.23;330.23;;;22.20;99.90;;;;;;5131822;27;20158;-73
2021/06/10 10:11:33;;;;;;;378.30;360.48;;;22.20;99.90;;;;;;5131680;27;20650;-74
2021/06/10 10:14:01;;;;;;;347.52;331.40;;;22.20;99.90;;;;;;5131550;27;20166;-72
2021/06/10 10:16:33;;;;;;;328.65;313.48;;;22.20;99.90;;;;;;5131531;27;20173;-72
2021/06/10 10:19:02;;;;;;;359.10;342.45;;;22.10;99.90;;;;;;5131482;27;20185;-73
2021/06/10 10:21:29;;;;;;;359.88;343.17;;;22.10;99.90;;;;;;5130054;28;20212;-72
2021/06/10 10:24:04;;;;;;;370.73;353.38;;;22.10;99.90;;;;;;5131294;27;20176;-72
2021/06/10 10:26:31;;;;;;;364.95;347.85;;;22.00;99.90;;;;;;5131306;27;20157;-72
2021/06/10 10:28:59;;;;;;;364.45;347.42;;;22.00;99.90;;;;;;5131122;27;20178;-66
2021/06/10 10:31:27;;;;;;;350.10;333.77;;;22.00;99.90;;;;;;5131208;28;20166;-65
2021/06/10 10:33:53;;;;;;;358.42;341.83;;;22.00;99.90;;;;;;5131049;27;20172;-65
2021/06/10 10:36:24;;;;;;;339.10;323.40;;;22.10;99.90;;;;;;5131063;28;20177;-65
2021/06/10 10:39:03;;;;;;;357.13;340.52;;;22.20;99.90;;;;;;5131020;28;20166;-65
2021/06/10 10:41:30;;;;;;;343.50;327.65;;;22.20;99.90;;;;;;5130935;28;20201;-65
2021/06/10 10:44:09;;;;;;;339.60;323.95;;;22.30;99.90;;;;;;5131014;28;20197;-65
2021/06/10 10:46:35;;;;;;;343.63;327.70;;;22.30;99.90;;;;;;5130873;28;20600;-65
2021/06/10 10:49:18;;;;;;;333.02;317.67;;;22.30;99.90;;;;;;5130867;28;20223;-71
2021/06/10 10:51:44;;;;;;;343.65;327.73;;;22.30;99.90;;;;;;5130755;27;20166;-71
2021/06/10 10:54:30;;;;;;;349.45;333.30;;;22.30;99.90;;;;;;5130764;28;20219;-70
2021/06/10 10:56:55;;;;;;;340.42;324.70;;;22.30;99.90;;;;;;5130652;28;20181;-71
2021/06/10 10:59:21;;;;;;;360.50;343.83;;;22.30;99.90;;;;;;5130430;27;20170;-71
2021/06/10 11:02:04;;;;;;;356.20;339.70;;;22.30;99.90;;;;;;5130549;28;20623;-71
2021/06/10 11:04:52;;;;;;;351.85;335.67;;;22.30;99.90;;;;;;5130549;28;20226;-73
2021/06/10 11:07:36;;;;;;;349.13;332.77;;;22.40;99.90;;;;;;5130457;28;20177;-73
2021/06/10 11:10:06;;;;;;;356.00;339.45;;;22.50;99.90;;;;;;5130423;28;20172;-73
2021/06/10 11:12:40;;;;;;;362.17;345.30;;;22.70;99.90;;;;;;5119872;28;20166;-73
2021/06/10 11:15:08;;;;;;;350.23;333.98;;;22.80;99.90;;;;;;5116663;28;20170;-74
2021/06/10 11:17:45;;;;;;;359.70;342.92;;;22.90;99.90;;;;;;5116588;28;20167;-71
2021/06/10 11:20:15;;;;;;;354.48;338.10;;;22.90;99.90;;;;;;5116493;28;20681;-71
2021/06/10 11:22:42;;;;;;;369.45;352.20;;;22.90;99.90;;;;;;5115239;28;20170;-71
2021/06/10 11:25:15;;;;;;;361.25;344.40;;;22.90;99.90;;;;;;5116504;28;20531;-75
2021/06/10 11:27:46;;;;;;;372.63;355.17;;;22.90;99.90;;;;;;5116385;28;20715;-72
2021/06/10 11:30:22;;;;;;;376.52;358.75;;;23.00;99.90;;;;;;5116412;28;20170;-73
2021/06/10 11:33:02;;;;;;;374.13;356.52;;;23.10;99.90;;;;;;5116248;28;20162;-78
2021/06/10 11:35:34;;;;;;;380.58;362.65;;;23.20;99.90;;;;;;5116339;28;20166;-78
2021/06/10 11:38:03;;;;;;;384.25;366.20;;;23.30;99.90;;;;;;5115003;28;20170;-78
2021/06/10 11:40:30;;;;;;;399.73;380.52;;;23.40;99.90;;;;;;5116143;28;20291;-75
2021/06/10 11:42:55;;;;;;;380.00;362.23;;;23.50;99.90;;;;;;5116105;28;20343;-76
2021/06/10 11:45:26;;;;;;;374.13;356.52;;;23.50;99.90;;;;;;5116001;28;20615;-75
2021/06/10 11:47:52;;;;;;;398.98;380.00;;;23.50;99.90;;;;;;5116067;28;20163;-74
2021/06/10 11:50:25;;;;;;;402.83;383.67;;;23.40;99.90;;;;;;5114762;28;20175;-76
2021/06/10 11:53:00;;;;;;;400.77;381.63;;;23.40;99.90;;;;;;5116138;28;20169;-75
2021/06/10 11:55:27;;;;;;;386.67;368.27;;;23.40;99.90;;;;;;5115852;28;20334;-75
2021/06/10 11:58:13;;;;;;;396.75;377.95;;;23.40;99.90;;;;;;5115719;28;20167;-77
2021/06/10 12:00:46;;;;;;;367.77;350.63;;;23.50;99.90;;;;;;5115583;28;20210;-78
2021/06/10 12:03:16;;;;;;;399.52;380.65;;;23.70;99.90;;;;;;5115828;28;20170;-75
2021/06/10 12:05:50;;;;;;;420.00;399.83;;;23.90;99.90;;;;;;5115733;28;20167;-74
2021/06/10 12:08:25;;;;;;;409.40;389.90;;;23.80;99.90;;;;;;5115543;28;20658;-74
2021/06/10 12:10:58;;;;;;;399.08;380.17;;;23.70;99.90;;;;;;5115646;28;20170;-74
2021/06/10 12:13:27;;;;;;;387.33;369.13;;;23.60;99.90;;;;;;5114285;28;20177;-78
2021/06/10 12:15:53;;;;;;;374.65;357.15;;;23.50;99.90;;;;;;5115494;28;20167;-75
2021/06/10 12:18:20;;;;;;;354.05;337.83;;;23.50;99.90;;;;;;5115401;28;20723;-75
2021/06/10 12:20:48;;;;;;;415.75;395.90;;;23.70;99.90;;;;;;5113925;28;20198;-80
2021/06/10 12:23:26;;;;;;;386.05;367.77;;;23.90;99.90;;;;;;5112976;28;20182;-74
2021/06/10 12:25:56;;;;;;;366.13;349.20;;;24.10;99.90;;;;;;5115264;28;20162;-77
2021/06/10 12:28:29;;;;;;;403.90;384.83;;;24.30;99.90;;;;;;5115229;28;20190;-85
2021/06/10 12:31:05;;;;;;;381.88;364.02;;;24.60;99.90;;;;;;5115219;28;20166;-82
2021/06/10 12:33:33;;;;;;;361.67;345.02;;;24.70;99.90;;;;;;5113985;28;20181;-82
2021/06/10 12:35:59;;;;;;;381.30;363.38;;;24.70;99.90;;;;;;5115125;28;20198;-87
2021/06/10 12:38:39;;;;;;;312.92;298.63;;;24.80;99.90;;;;;;5113844;28;20182;-76
2021/06/10 12:41:18;;;;;;;304.52;290.77;;;24.90;99.90;;;;;;5115029;28;20169;-74
2021/06/10 12:43:44;;;;;;;301.15;287.52;;;25.10;99.90;;;;;;5114882;28;20162;-76
2021/06/10 12:46:10;;;;;;;302.15;288.42;;;25.20;99.90;;;;;;5114833;28;20171;-75
2021/06/10 12:48:37;;;;;;;279.65;267.02;;;25.30;99.90;;;;;;5114803;28;20201;-76
2021/06/10 12:51:25;;;;;;;319.20;304.52;;;25.40;99.90;;;;;;5114679;28;20222;-75
2021/06/10 12:53:58;;;;;;;299.27;285.63;;;25.40;99.90;;;;;;5114683;28;20217;-79
2021/06/10 12:56:51;;;;;;;317.90;303.40;;;25.50;99.90;;;;;;5114638;28;20212;-77
2021/06/10 12:59:28;;;;;;;333.65;318.35;;;25.60;99.90;;;;;;5106489;28;20713;-78
2021/06/10 13:02:03;;;;;;;306.92;293.00;;;25.50;99.90;;;;;;5114585;28;20650;-68
2021/06/10 13:04:40;;;;;;;383.73;365.23;;;25.50;99.90;;;;;;5114532;28;20328;-70
2021/06/10 13:07:08;;;;;;;332.95;317.65;;;25.30;99.90;;;;;;5114431;28;20169;-70
2021/06/10 13:09:34;;;;;;;321.73;307.02;;;25.20;99.90;;;;;;5114426;28;20219;-69
2021/06/10 13:12:17;;;;;;;299.58;285.90;;;25.70;99.90;;;;;;5114336;28;20158;-69
2021/06/10 13:14:43;;;;;;;257.48;245.85;;;26.00;99.90;;;;;;5114293;28;20163;-70
2021/06/10 13:17:09;;;;;;;302.85;288.92;;;26.40;99.90;;;;;;5114304;28;20159;-69
2021/06/10 13:19:45;;;;;;;381.27;363.25;;;26.70;99.90;;;;;;5114301;28;20185;-69
2021/06/10 13:22:13;;;;;;;369.33;351.95;;;26.80;99.90;;;;;;5114238;28;20162;-67
2021/06/10 13:24:48;;;;;;;382.58;364.30;;;26.80;99.90;;;;;;5114123;28;20221;-69
2021/06/10 13:27:23;;;;;;;402.48;383.33;;;26.80;99.90;;;;;;5114110;28;20162;-69
2021/06/10 13:29:51;;;;;;;330.00;314.70;;;26.50;99.90;;;;;;5113943;28;20258;-72
2021/06/10 13:32:27;;;;;;;480.38;455.67;;;26.70;99.90;;;;;;5113960;28;20570;-72
2021/06/10 13:37:31;;;;;;;418.52;398.27;;;26.60;99.90;;;;;;5114052;28;20158;-71
2021/06/10 13:39:57;;;;;;;451.05;428.75;;;26.80;99.90;;;;;;5113840;28;20166;-68
2021/06/10 13:42:24;;;;;;;490.42;465.50;;;26.90;99.90;;;;;;5113981;28;20523;-71
2021/06/10 13:44:50;;;;;;;452.23;429.77;;;26.80;99.90;;;;;;5113868;28;20169;-72
2021/06/10 13:47:18;;;;;;;388.60;370.20;;;26.90;99.90;;;;;;5113951;28;20182;-70
2021/06/10 13:49:44;;;;;;;489.15;464.17;;;27.10;99.90;;;;;;5113737;28;20197;-71
2021/06/10 13:52:11;;;;;;;540.47;511.73;;;27.00;99.90;;;;;;5113765;28;20591;-69
2021/06/10 13:54:38;;;;;;;441.27;419.63;;;26.80;99.90;;;;;;5113676;28;20251;-70
2021/06/10 13:57:04;;;;;;;415.58;395.58;;;26.30;99.90;;;;;;5113820;28;20170;-69
2021/06/10 13:59:30;;;;;;;422.77;402.35;;;26.10;99.90;;;;;;5112314;28;20531;-65
2021/06/10 14:01:56;;;;;;;268.98;256.67;;;25.90;99.90;;;;;;5113747;28;20257;-68
2021/06/10 14:04:21;;;;;;;388.63;370.23;;;26.10;99.90;;;;;;5113652;28;20228;-67
2021/06/10 14:06:48;;;;;;;451.05;428.67;;;26.50;99.90;;;;;;5113655;28;20163;-67
2021/06/10 14:09:14;;;;;;;388.52;370.08;;;26.60;99.90;;;;;;5113577;28;20158;-66
2021/06/10 14:11:40;;;;;;;391.17;372.58;;;26.80;99.90;;;;;;5113460;28;20201;-67
2021/06/10 14:14:06;;;;;;;491.35;466.40;;;26.90;99.90;;;;;;5113570;28;20202;-71
2021/06/10 14:16:33;;;;;;;362.75;345.77;;;27.00;99.90;;;;;;5113564;28;20631;-70
2021/06/10 14:19:02;;;;;;;467.33;444.00;;;27.10;99.90;;;;;;5113479;28;20169;-69
2021/06/10 14:21:28;;;;;;;474.73;451.02;;;27.30;99.90;;;;;;5113464;28;20679;-71
2021/06/10 14:23:56;;;;;;;541.50;512.85;;;27.40;99.90;;;;;;5113478;28;20197;-71
2021/06/10 14:26:22;;;;;;;502.55;476.58;;;27.30;99.90;;;;;;5113381;28;20166;-70
2021/06/10 14:28:49;;;;;;;449.83;427.55;;;27.30;99.90;;;;;;5113223;28;20191;-70
2021/06/10 14:33:59;;;;;;;559.00;528.80;;;27.80;99.90;;;;;;5113323;28;20174;-70
2021/06/10 14:36:25;;;;;;;564.22;533.50;;;28.00;99.90;;;;;;5113317;28;20210;-70
2021/06/10 14:38:52;;;;;;;605.67;571.60;;;27.90;99.90;;;;;;5113316;28;20171;-67
2021/06/10 14:41:17;;;;;;;583.90;551.72;;;27.30;99.90;;;;;;5113194;28;20162;-67
2021/06/10 14:43:43;;;;;;;468.48;444.83;;;27.00;99.90;;;;;;5113258;28;20192;-70
2021/06/10 14:46:09;;;;;;;493.15;468.05;;;27.00;99.90;;;;;;5113242;28;20190;-71
2021/06/10 14:48:35;;;;;;;466.38;442.98;;;27.20;99.90;;;;;;5117107;28;20636;-70
2021/06/10 14:51:00;;;;;;;425.88;405.00;;;27.50;99.90;;;;;;5117035;28;20226;-71
2021/06/10 14:53:26;;;;;;;481.52;457.02;;;27.70;99.90;;;;;;5117045;28;20170;-73
2021/06/10 14:55:52;;;;;;;545.35;516.35;;;28.10;99.90;;;;;;5116992;28;20171;-71
2021/06/10 14:58:18;;;;;;;550.08;520.63;;;28.40;99.90;;;;;;5117084;28;20204;-70
2021/06/10 15:00:45;;;;;;;544.55;515.50;;;28.50;99.90;;;;;;5116872;28;20709;-70
2021/06/10 15:03:10;;;;;;;565.28;534.45;;;28.70;99.90;;;;;;5116833;28;20185;-70
2021/06/10 15:05:36;;;;;;;567.45;536.47;;;28.80;99.90;;;;;;5116903;28;20182;-70
2021/06/10 15:08:01;;;;;;;616.78;581.50;;;28.80;99.90;;;;;;5116863;28;20275;-71
2021/06/10 15:10:27;;;;;;;552.55;522.53;;;28.80;99.90;;;;;;5116695;28;20202;-70
2021/06/10 15:12:53;;;;;;;608.78;574.17;;;28.60;99.90;;;;;;5116710;28;20163;-70
2021/06/10 15:15:20;;;;;;;623.65;587.55;;;28.50;99.90;;;;;;5116668;28;20174;-69
2021/06/10 15:17:48;;;;;;;604.75;570.55;;;28.10;99.90;;;;;;5098698;28;20210;-69
2021/06/10 15:20:15;;;;;;;624.00;588.40;;;27.80;99.90;;;;;;5116521;28;20274;-70
2021/06/10 15:22:44;;;;;;;639.72;602.35;;;27.70;99.90;;;;;;5116555;28;20245;-70
2021/06/10 15:25:11;;;;;;;615.97;580.72;;;27.60;99.90;;;;;;5116487;28;20175;-68
2021/06/10 15:27:36;;;;;;;570.33;539.35;;;28.00;99.90;;;;;;5116361;28;20194;-69
2021/06/10 15:30:05;;;;;;;623.35;587.53;;;28.40;99.90;;;;;;5116318;28;20190;-69
2021/06/10 15:32:31;;;;;;;655.20;616.50;;;28.70;99.90;;;;;;5114941;28;20706;-69
2021/06/10 15:34:56;;;;;;;633.25;596.33;;;28.80;99.90;;;;;;5116270;28;20250;-68
2021/06/10 15:37:22;;;;;;;629.40;592.97;;;28.90;99.90;;;;;;5116198;28;20612;-68
2021/06/10 15:39:48;;;;;;;562.83;532.15;;;28.90;99.90;;;;;;5116216;28;20166;-68
2021/06/10 15:42:13;;;;;;;539.70;510.67;;;29.00;99.90;;;;;;5116178;28;20534;-70
2021/06/10 15:44:40;;;;;;;592.28;558.65;;;29.10;99.90;;;;;;5116557;28;20177;-66
2021/06/10 15:47:06;;;;;;;482.23;457.65;;;29.20;99.90;;;;;;5116000;28;20174;-65
2021/06/10 15:49:33;;;;;;;586.17;553.60;;;29.30;99.90;;;;;;5115996;28;20166;-66
2021/06/10 15:51:59;;;;;;;541.75;513.03;;;29.10;99.90;;;;;;5115993;28;20167;-65
2021/06/10 15:54:25;;;;;;;499.05;473.45;;;29.10;99.90;;;;;;5116031;28;20584;-66
2021/06/10 15:56:50;;;;;;;624.72;588.47;;;29.20;99.90;;;;;;5115902;28;20163;-66
2021/06/10 15:59:16;;;;;;;576.85;545.08;;;29.10;99.90;;;;;;5115570;28;20249;-66
2021/06/10 16:01:42;;;;;;;509.08;482.75;;;29.20;99.90;;;;;;5115715;28;20538;-66
2021/06/10 16:04:07;;;;;;;485.30;460.63;;;29.40;99.90;;;;;;5115735;28;20306;-66
2021/06/10 16:06:34;;;;;;;657.60;618.47;;;29.60;99.90;;;;;;5115717;28;20186;-65
2021/06/10 16:08:59;;;;;;;584.10;551.78;;;29.40;99.90;;;;;;5115674;28;20177;-65
2021/06/10 16:11:25;;;;;;;577.78;545.47;;;29.30;99.90;;;;;;5115595;28;20197;-66
2021/06/10 16:13:51;;;;;;;501.73;475.75;;;29.30;99.90;;;;;;5115616;28;20167;-66
2021/06/10 16:16:16;;;;;;;507.95;481.75;;;29.10;99.90;;;;;;5115455;28;20158;-65
2021/06/10 16:18:43;;;;;;;509.58;483.13;;;28.80;99.90;;;;;;5115471;28;20170;-66
2021/06/10 16:21:11;;;;;;;524.75;496.98;;;28.60;99.90;;;;;;5115344;28;20163;-66
2021/06/10 16:23:36;;;;;;;605.22;571.00;;;28.80;99.90;;;;;;5115459;28;20252;-66
2021/06/10 16:26:03;;;;;;;486.55;461.75;;;29.20;99.90;;;;;;5115263;28;20246;-66
2021/06/10 16:28:29;;;;;;;476.77;452.55;;;29.80;99.90;;;;;;5115234;28;20610;-66
2021/06/10 16:30:55;;;;;;;377.48;359.67;;;30.10;99.90;;;;;;5115101;28;20277;-66
2021/06/10 16:33:22;;;;;;;382.92;364.77;;;30.20;99.90;;;;;;5115147;28;20159;-66
2021/06/10 16:35:47;;;;;;;477.98;453.80;;;30.10;99.90;;;;;;5115018;28;20162;-66
2021/06/10 16:38:13;;;;;;;413.83;393.98;;;29.80;99.90;;;;;;5115065;28;20520;-66
2021/06/10 16:40:39;;;;;;;547.75;518.35;;;29.70;99.90;;;;;;5114982;28;20173;-66
2021/06/10 16:43:04;;;;;;;540.45;511.52;;;29.60;99.90;;;;;;5114896;28;20174;-66
2021/06/10 16:45:30;;;;;;;573.63;542.25;;;29.70;99.90;;;;;;5114822;28;20174;-66
2021/06/10 16:47:55;;;;;;;294.23;280.75;;;29.90;99.90;;;;;;5114786;28;20174;-66
2021/06/10 16:50:21;;;;;;;419.88;399.50;;;30.20;99.90;;;;;;5114747;28;20218;-66
2021/06/10 16:52:47;;;;;;;290.17;276.90;;;30.30;99.90;;;;;;5114641;28;20166;-66
2021/06/10 16:55:13;;;;;;;314.67;300.17;;;30.30;99.90;;;;;;5114680;28;20169;-66
2021/06/10 16:57:39;;;;;;;449.92;427.50;;;30.40;99.90;;;;;;5114662;28;20249;-66
2021/06/10 17:00:56;;;;;;;227.50;217.13;;;30.30;99.90;;;;;;5114401;28;20278;-66
2021/06/10 17:05:35;;;;;;;266.50;254.30;;;30.70;99.90;;;;;;5114532;28;20163;-66
2021/06/10 17:08:03;;;;;;;476.52;452.23;;;30.90;99.90;;;;;;5114510;28;20249;-66
2021/06/10 17:10:34;;;;;;;436.48;414.90;;;30.60;99.90;;;;;;5113822;28;20213;-66
2021/06/10 17:13:02;;;;;;;682.50;641.25;;;30.30;99.90;;;;;;5114433;28;20725;-66
2021/06/10 17:15:29;;;;;;;653.13;614.40;;;29.70;99.90;;;;;;5114329;28;20189;-66
2021/06/10 17:17:54;;;;;;;711.38;668.00;;;28.90;99.90;;;;;;5114390;28;20215;-66
2021/06/10 17:20:25;;;;;;;696.65;654.13;;;28.40;99.90;;;;;;5114219;28;20261;-66
2021/06/10 17:22:51;;;;;;;722.08;677.67;;;28.50;99.90;;;;;;5114197;28;20162;-66
2021/06/10 17:25:18;;;;;;;756.63;709.40;;;28.90;99.90;;;;;;5114188;28;20520;-66
2021/06/10 17:27:44;;;;;;;733.25;688.13;;;29.20;99.90;;;;;;5114077;28;20190;-66
2021/06/10 17:30:11;;;;;;;691.13;649.08;;;29.50;99.90;;;;;;5114009;28;20792;-66
2021/06/10 17:32:43;;;;;;;579.72;547.67;;;29.60;99.90;;;;;;5114006;28;20166;-66
2021/06/10 17:35:10;;;;;;;594.60;561.58;;;29.70;99.90;;;;;;5113925;28;20167;-66
2021/06/10 17:37:36;;;;;;;616.70;580.90;;;29.60;99.90;;;;;;5112672;28;20228;-66
2021/06/10 17:40:04;;;;;;;625.55;589.53;;;30.00;99.90;;;;;;5113967;28;20171;-66
2021/06/10 17:42:33;;;;;;;617.03;581.97;;;30.10;99.90;;;;;;5113911;28;20162;-66
2021/06/10 17:45:02;;;;;;;574.47;542.40;;;29.90;99.90;;;;;;5113866;28;20192;-66
2021/06/10 17:47:28;;;;;;;671.70;631.47;;;30.00;99.90;;;;;;5113807;28;20162;-66
2021/06/10 17:49:54;;;;;;;692.38;650.20;;;29.80;99.90;;;;;;5113681;28;20247;-66
2021/06/10 17:52:20;;;;;;;582.90;550.47;;;29.60;99.90;;;;;;5113752;28;20155;-66
2021/06/10 17:54:47;;;;;;;649.38;611.38;;;29.50;99.90;;;;;;5113708;28;20159;-66
2021/06/10 17:57:13;;;;;;;571.97;540.65;;;29.40;99.90;;;;;;5113869;28;20230;-66
2021/06/10 17:59:39;;;;;;;592.50;559.38;;;29.40;99.90;;;;;;5113503;28;20218;-66
2021/06/10 18:02:04;;;;;;;606.72;572.35;;;29.30;99.90;;;;;;5113701;28;20199;-66
2021/06/10 18:04:30;;;;;;;587.85;555.00;;;29.30;99.90;;;;;;5113678;28;20178;-66
2021/06/10 18:06:55;;;;;;;563.28;532.72;;;29.20;99.90;;;;;;5113681;28;20524;-66
2021/06/10 18:09:21;;;;;;;553.05;523.17;;;29.10;99.90;;;;;;5113663;28;20202;-66
2021/06/10 18:11:46;;;;;;;699.50;656.78;;;29.10;99.90;;;;;;5113562;28;20201;-66
2021/06/10 18:14:12;;;;;;;687.13;645.53;;;28.90;99.90;;;;;;5113640;28;20518;-66
2021/06/10 18:16:37;;;;;;;623.28;587.20;;;28.90;99.90;;;;;;5113612;28;20216;-66
2021/06/10 18:19:03;;;;;;;702.78;659.85;;;29.10;99.90;;;;;;5113554;28;20162;-66
2021/06/10 18:21:29;;;;;;;679.33;638.40;;;28.90;99.90;;;;;;5113962;28;20162;-66
2021/06/10 18:23:55;;;;;;;615.50;580.40;;;28.90;99.90;;;;;;5117700;28;20208;-66
2021/06/10 18:26:21;;;;;;;620.38;584.78;;;28.90;99.90;;;;;;5117671;28;20170;-66
2021/06/10 18:28:46;;;;;;;569.95;538.90;;;28.90;99.90;;;;;;5117533;28;20185;-66
2021/06/10 18:31:12;;;;;;;611.13;575.97;;;28.80;99.90;;;;;;5117482;28;20678;-66
2021/06/10 18:33:38;;;;;;;681.50;640.20;;;28.90;99.90;;;;;;5117436;28;20208;-66
2021/06/10 18:36:04;;;;;;;710.90;667.75;;;28.90;99.90;;;;;;5117404;28;20185;-66
2021/06/10 18:38:30;;;;;;;671.60;631.28;;;28.60;99.90;;;;;;5117438;28;20175;-66
2021/06/10 18:40:55;;;;;;;738.28;692.78;;;28.50;99.90;;;;;;5117446;28;20529;-66
2021/06/10 18:43:21;;;;;;;737.95;692.38;;;28.20;99.90;;;;;;5117300;28;20242;-66
2021/06/10 18:45:46;;;;;;;779.78;730.85;;;27.90;99.90;;;;;;5117738;28;20177;-66
2021/06/10 18:48:12;;;;;;;761.83;714.38;;;27.60;99.90;;;;;;5117217;28;20186;-66
2021/06/10 18:50:38;;;;;;;799.28;748.45;;;27.40;99.90;;;;;;5117068;28;20221;-66
2021/06/10 18:53:03;;;;;;;791.90;742.00;;;27.00;99.90;;;;;;5117207;28;20165;-66
2021/06/10 18:55:29;;;;;;;758.70;711.72;;;26.70;99.90;;;;;;5117107;28;20527;-66
2021/06/10 18:57:54;;;;;;;692.33;650.40;;;26.40;99.90;;;;;;5117115;28;20738;-66
2021/06/10 19:00:22;;;;;;;690.63;648.75;;;26.30;99.90;;;;;;5116834;28;20271;-66
2021/06/10 19:02:48;;;;;;;643.05;605.40;;;26.40;99.90;;;;;;5116913;28;20215;-66
2021/06/10 19:05:15;;;;;;;686.63;645.03;;;26.70;99.90;;;;;;5116933;28;20178;-66
2021/06/10 19:07:42;;;;;;;734.95;689.90;;;27.00;99.90;;;;;;5116833;28;20227;-66
2021/06/10 19:10:09;;;;;;;716.65;672.83;;;27.20;99.90;;;;;;5116740;28;20190;-66
2021/06/10 19:12:34;;;;;;;761.90;714.50;;;27.20;99.90;;;;;;5116758;28;20520;-66
2021/06/10 19:15:05;;;;;;;681.17;639.97;;;27.00;99.90;;;;;;5116716;28;20170;-66
2021/06/10 19:17:31;;;;;;;614.13;579.10;;;26.80;99.90;;;;;;5116703;28;20570;-66
2021/06/10 19:19:57;;;;;;;608.22;573.70;;;26.60;99.90;;;;;;5116603;28;20166;-66
2021/06/10 19:22:22;;;;;;;569.80;538.55;;;26.40;99.90;;;;;;5116606;28;20519;-66
2021/06/10 19:24:50;;;;;;;560.58;529.97;;;26.10;99.90;;;;;;5116494;28;20565;-66
